Time;durP1;ratioP1;P1;durP2;ratioP2;P2;SDS_P1;SDS_P2;PMS_P1;PMS_P2;Temp;Humidity;BMP_temperature;BMP_pressure;BME280_temperature;BME280_humidity;BME280_pressure;Samples;Min_cycle;Max_cycle;Signal;HPM_P1;HPM_P2
2023/06/09 00:01:58;;;;;;;23.08;8.02;;;11.90;99.90;;;;;;5093514;27;20042;-81
2023/06/09 00:04:29;;;;;;;20.75;7.80;;;11.90;99.90;;;;;;5088912;27;20050;-81
2023/06/09 00:06:55;;;;;;;20.08;7.45;;;11.80;99.90;;;;;;5091523;27;20039;-82
2023/06/09 00:09:21;;;;;;;15.90;7.88;;;11.80;99.90;;;;;;5085801;27;20035;-82
2023/06/09 00:11:47;;;;;;;15.43;6.53;;;11.80;99.90;;;;;;5097393;27;20118;-81
2023/06/09 00:14:13;;;;;;;16.42;6.40;;;11.80;99.90;;;;;;5098449;27;20573;-81
2023/06/09 00:16:39;;;;;;;15.73;6.93;;;11.80;99.90;;;;;;5100499;27;20048;-82
2023/06/09 00:19:09;;;;;;;18.35;7.03;;;11.80;99.90;;;;;;5114923;27;20131;-82
2023/06/09 00:21:37;;;;;;;19.95;6.82;;;11.80;99.90;;;;;;5088478;27;20065;-81
2023/06/09 00:24:03;;;;;;;16.05;7.18;;;11.80;99.90;;;;;;5108590;27;20074;-82
2023/06/09 00:26:29;;;;;;;15.95;6.70;;;11.80;99.90;;;;;;5095288;27;20160;-82
2023/06/09 00:28:57;;;;;;;16.98;7.18;;;11.80;99.90;;;;;;5110633;27;20898;-82
2023/06/09 00:31:23;;;;;;;13.73;7.20;;;11.80;99.90;;;;;;5122798;27;20118;-81
2023/06/09 00:33:49;;;;;;;16.30;6.80;;;11.80;99.90;;;;;;5114829;27;20462;-82
2023/06/09 00:36:14;;;;;;;17.48;7.50;;;11.80;99.90;;;;;;5095459;27;20099;-81
2023/06/09 00:38:43;;;;;;;14.88;7.05;;;11.80;99.90;;;;;;5132828;27;20047;-82
2023/06/09 00:41:09;;;;;;;17.48;6.07;;;11.80;99.90;;;;;;5087972;27;20047;-81
2023/06/09 00:43:34;;;;;;;12.18;5.90;;;11.80;99.90;;;;;;5133468;27;20054;-81
2023/06/09 00:46:04;;;;;;;18.60;6.30;;;11.80;99.90;;;;;;5088304;27;20035;-82
2023/06/09 00:48:30;;;;;;;24.20;7.90;;;11.90;99.90;;;;;;5092049;27;20146;-82
2023/06/09 00:50:57;;;;;;;18.33;7.20;;;11.90;99.90;;;;;;5090820;27;20087;-82
2023/06/09 00:53:26;;;;;;;22.17;7.78;;;11.80;99.90;;;;;;5106694;27;20047;-82
2023/06/09 00:55:55;;;;;;;15.82;7.57;;;11.90;99.90;;;;;;5088838;28;20409;-82
2023/06/09 00:58:23;;;;;;;17.42;6.72;;;11.80;99.90;;;;;;5090385;27;20143;-82
2023/06/09 01:00:50;;;;;;;20.42;7.50;;;11.90;99.90;;;;;;5105797;27;20031;-82
2023/06/09 01:03:16;;;;;;;19.08;7.00;;;11.80;99.90;;;;;;5092780;27;20456;-82
2023/06/09 01:05:48;;;;;;;15.40;6.97;;;11.80;99.90;;;;;;5105150;27;20035;-82
2023/06/09 01:08:38;;;;;;;13.95;6.85;;;11.80;99.90;;;;;;5092359;28;20039;-82
2023/06/09 01:11:28;;;;;;;17.25;6.80;;;11.80;99.90;;;;;;5082778;27;20315;-83
2023/06/09 01:14:20;;;;;;;25.15;8.73;;;11.80;99.90;;;;;;5100388;27;20047;-82
2023/06/09 01:17:11;;;;;;;18.33;7.00;;;11.80;99.90;;;;;;5087712;27;20043;-82
2023/06/09 01:19:45;;;;;;;24.63;7.60;;;11.80;99.90;;;;;;5081111;27;20051;-83
2023/06/09 01:22:23;;;;;;;18.98;7.90;;;11.80;99.90;;;;;;5113710;27;20046;-83
2023/06/09 01:25:07;;;;;;;20.45;7.30;;;11.80;99.90;;;;;;5117201;27;20039;-83
2023/06/09 01:27:36;;;;;;;19.65;7.47;;;11.80;99.90;;;;;;5102174;27;20434;-82
2023/06/09 01:30:04;;;;;;;22.67;8.13;;;11.80;99.90;;;;;;5118081;27;20380;-83
2023/06/09 01:32:31;;;;;;;19.65;7.38;;;11.80;99.90;;;;;;5111365;27;20035;-82
2023/06/09 01:34:57;;;;;;;22.52;7.32;;;11.80;99.90;;;;;;5086264;28;20035;-83
2023/06/09 01:37:23;;;;;;;19.83;7.35;;;11.80;99.90;;;;;;5085376;28;20043;-83
2023/06/09 01:39:50;;;;;;;18.27;7.70;;;11.80;99.90;;;;;;5089332;28;20134;-83
2023/06/09 01:42:15;;;;;;;17.02;7.07;;;11.70;99.90;;;;;;5072491;28;20135;-82
2023/06/09 01:44:41;;;;;;;18.98;7.25;;;11.80;99.90;;;;;;5083039;28;20126;-83
2023/06/09 01:47:07;;;;;;;23.02;7.38;;;11.80;99.90;;;;;;5051518;28;20040;-83
2023/06/09 01:50:01;;;;;;;18.95;7.85;;;11.80;99.90;;;;;;5069068;28;20044;-83
2023/06/09 01:52:47;;;;;;;22.73;7.95;;;11.80;99.90;;;;;;5050643;28;20062;-83
2023/06/09 01:55:38;;;;;;;16.27;7.60;;;11.80;99.90;;;;;;5070717;28;20118;-82
2023/06/09 01:58:29;;;;;;;17.20;7.57;;;11.80;99.90;;;;;;5063601;28;20036;-83
2023/06/09 02:00:57;;;;;;;21.10;8.20;;;11.80;99.90;;;;;;5078515;28;20088;-83
2023/06/09 02:03:23;;;;;;;19.27;7.97;;;11.80;99.90;;;;;;5077628;28;20040;-82
2023/06/09 02:05:53;;;;;;;24.92;8.13;;;11.80;99.90;;;;;;5062164;28;20083;-83
2023/06/09 02:08:19;;;;;;;19.75;7.90;;;11.80;99.90;;;;;;5085839;28;20732;-83
2023/06/09 02:10:57;;;;;;;20.98;8.20;;;11.80;99.90;;;;;;5084136;28;20111;-83
2023/06/09 02:13:23;;;;;;;17.10;7.72;;;11.80;99.90;;;;;;5064852;28;20040;-83
2023/06/09 02:15:49;;;;;;;18.33;8.27;;;11.80;99.90;;;;;;5070026;28;20577;-83
2023/06/09 02:18:20;;;;;;;21.65;7.85;;;11.80;99.90;;;;;;5062792;28;20105;-83
2023/06/09 02:20:47;;;;;;;25.00;9.13;;;11.80;99.90;;;;;;5078162;28;20048;-83
2023/06/09 02:23:23;;;;;;;21.58;8.18;;;11.80;99.90;;;;;;5080175;28;20047;-82
2023/06/09 02:25:49;;;;;;;20.00;8.40;;;11.80;99.90;;;;;;5067607;28;20036;-83
2023/06/09 02:28:16;;;;;;;19.70;8.95;;;11.80;99.90;;;;;;5073221;28;20442;-83
2023/06/09 02:30:42;;;;;;;20.23;8.40;;;11.80;99.90;;;;;;5067299;28;20188;-83
2023/06/09 02:33:08;;;;;;;25.27;9.18;;;11.80;99.90;;;;;;5070320;28;20040;-85
2023/06/09 02:35:34;;;;;;;21.70;9.57;;;11.80;99.90;;;;;;5059024;28;20039;-83
2023/06/09 02:38:05;;;;;;;27.10;8.73;;;11.80;99.90;;;;;;5069871;27;20043;-83
2023/06/09 02:40:32;;;;;;;22.23;9.48;;;11.80;99.90;;;;;;5090661;27;20057;-84
2023/06/09 02:42:58;;;;;;;20.92;8.95;;;11.80;99.90;;;;;;5097513;27;20035;-84
2023/06/09 02:45:24;;;;;;;18.15;8.98;;;11.80;99.90;;;;;;5131817;27;20057;-84
2023/06/09 02:47:50;;;;;;;22.83;9.32;;;11.80;99.90;;;;;;5112785;27;20042;-83
2023/06/09 02:50:17;;;;;;;21.27;9.02;;;11.80;99.90;;;;;;5137704;27;20287;-83
2023/06/09 02:52:42;;;;;;;16.17;7.88;;;11.80;99.90;;;;;;5088525;27;20351;-83
2023/06/09 02:55:08;;;;;;;21.60;8.05;;;11.80;99.90;;;;;;5095830;27;20098;-83
2023/06/09 02:57:34;;;;;;;18.27;7.97;;;11.80;99.90;;;;;;5122072;27;20840;-83
2023/06/09 03:00:00;;;;;;;16.73;7.75;;;11.80;99.90;;;;;;5097547;27;20046;-83
2023/06/09 03:02:27;;;;;;;27.48;8.07;;;11.80;99.90;;;;;;5090598;27;20075;-84
2023/06/09 03:04:53;;;;;;;23.98;9.63;;;11.80;99.90;;;;;;5101346;27;20039;-83
2023/06/09 03:07:18;;;;;;;20.33;8.55;;;11.80;99.90;;;;;;5118545;27;20118;-83
2023/06/09 03:09:46;;;;;;;17.13;8.27;;;11.80;99.90;;;;;;5122474;27;20102;-83
2023/06/09 03:12:12;;;;;;;30.13;9.27;;;11.80;99.90;;;;;;5096174;27;20292;-83
2023/06/09 03:14:38;;;;;;;19.27;8.88;;;11.90;99.90;;;;;;5103335;27;20371;-83
2023/06/09 03:17:04;;;;;;;21.98;9.48;;;11.80;99.90;;;;;;5106126;27;20039;-83
2023/06/09 03:19:33;;;;;;;21.02;8.48;;;11.80;99.90;;;;;;5122635;27;20042;-84
2023/06/09 03:21:59;;;;;;;16.67;8.38;;;11.80;99.90;;;;;;5104168;27;20462;-83
2023/06/09 03:24:27;;;;;;;22.75;9.05;;;11.80;99.90;;;;;;5109054;27;20047;-83
2023/06/09 03:26:53;;;;;;;21.60;9.10;;;11.80;99.90;;;;;;5108821;27;20044;-83
2023/06/09 03:29:19;;;;;;;17.23;8.40;;;11.80;99.90;;;;;;5094994;27;20024;-84
2023/06/09 03:31:45;;;;;;;18.48;8.38;;;11.80;99.90;;;;;;5095164;27;20066;-83
2023/06/09 03:34:11;;;;;;;17.15;8.40;;;11.90;99.90;;;;;;5093062;27;20115;-84
2023/06/09 03:36:37;;;;;;;18.08;8.77;;;11.90;99.90;;;;;;5107852;27;20039;-84
2023/06/09 03:39:03;;;;;;;17.65;8.40;;;11.90;99.90;;;;;;5083307;27;20506;-83
2023/06/09 03:41:29;;;;;;;28.40;8.90;;;11.90;99.90;;;;;;5119291;27;20496;-83
2023/06/09 03:43:55;;;;;;;19.30;8.27;;;11.90;99.90;;;;;;5090567;27;20118;-83
2023/06/09 03:46:21;;;;;;;16.65;8.52;;;12.00;99.90;;;;;;5115837;27;20082;-83
2023/06/09 03:48:47;;;;;;;22.52;8.40;;;12.00;99.90;;;;;;5086900;27;20118;-83
2023/06/09 03:51:12;;;;;;;17.65;7.03;;;12.10;99.90;;;;;;5090215;27;20118;-84
2023/06/09 03:53:38;;;;;;;23.65;8.90;;;12.10;99.90;;;;;;5092432;27;20042;-83
2023/06/09 03:56:04;;;;;;;19.05;8.63;;;12.10;99.90;;;;;;5123266;27;20464;-83
2023/06/09 03:58:30;;;;;;;23.13;8.27;;;12.10;99.90;;;;;;5110507;27;20055;-83
2023/06/09 04:00:56;;;;;;;19.45;8.30;;;12.10;99.90;;;;;;5087366;27;20144;-83
2023/06/09 04:03:22;;;;;;;19.10;8.57;;;12.20;99.90;;;;;;5094241;27;20424;-83
2023/06/09 04:05:48;;;;;;;22.63;8.68;;;12.30;99.90;;;;;;5117036;27;20035;-83
2023/06/09 04:08:16;;;;;;;21.80;8.70;;;12.30;99.90;;;;;;5084430;27;20039;-82
2023/06/09 04:10:42;;;;;;;24.25;9.23;;;12.30;99.90;;;;;;5110439;27;20118;-83
2023/06/09 04:13:08;;;;;;;18.17;9.23;;;12.30;99.90;;;;;;5110774;27;20031;-83
2023/06/09 04:15:34;;;;;;;20.63;9.35;;;12.40;99.90;;;;;;5109619;27;20043;-84
2023/06/09 04:18:03;;;;;;;19.92;8.25;;;12.50;99.90;;;;;;5090220;27;20125;-83
2023/06/09 04:20:29;;;;;;;20.55;9.07;;;12.50;99.90;;;;;;5081580;27;20133;-83
2023/06/09 04:22:55;;;;;;;17.90;8.98;;;12.50;99.90;;;;;;5088990;27;20042;-83
2023/06/09 04:25:25;;;;;;;23.80;8.80;;;12.60;99.90;;;;;;5123218;27;20034;-83
2023/06/09 04:27:55;;;;;;;22.25;8.90;;;12.70;99.90;;;;;;5083295;27;20052;-84
2023/06/09 04:30:29;;;;;;;21.20;8.43;;;12.80;99.90;;;;;;5126625;27;20772;-83
2023/06/09 04:32:59;;;;;;;19.85;8.98;;;12.80;99.90;;;;;;5124904;27;20485;-83
2023/06/09 04:35:24;;;;;;;26.00;8.95;;;12.90;99.90;;;;;;5115645;27;20322;-83
2023/06/09 04:37:51;;;;;;;21.10;8.18;;;12.80;99.90;;;;;;5097603;27;20208;-83
2023/06/09 04:40:25;;;;;;;24.48;8.50;;;13.00;99.90;;;;;;5115930;27;20045;-82
2023/06/09 04:42:53;;;;;;;20.92;8.43;;;13.00;99.90;;;;;;5099493;27;20051;-82
2023/06/09 04:45:20;;;;;;;18.88;8.05;;;13.00;99.90;;;;;;5101580;27;20045;-82
2023/06/09 04:47:49;;;;;;;13.32;7.50;;;13.20;99.90;;;;;;5120077;27;20031;-82
2023/06/09 04:50:17;;;;;;;17.77;8.13;;;13.30;99.90;;;;;;5105411;27;20484;-83
2023/06/09 04:52:44;;;;;;;18.98;8.85;;;13.30;99.90;;;;;;5083354;27;20379;-83
2023/06/09 04:55:11;;;;;;;17.73;8.38;;;13.30;99.90;;;;;;5121269;27;20414;-83
2023/06/09 04:57:38;;;;;;;19.25;8.05;;;13.40;99.90;;;;;;5087599;27;20130;-82
2023/06/09 05:00:16;;;;;;;21.02;8.25;;;13.40;99.90;;;;;;5110809;27;20533;-82
2023/06/09 05:02:42;;;;;;;19.27;7.78;;;13.50;99.90;;;;;;5109888;27;20049;-82
2023/06/09 05:05:09;;;;;;;22.20;8.48;;;13.60;99.90;;;;;;5094946;27;20564;-82
2023/06/09 05:07:35;;;;;;;19.77;8.68;;;13.50;99.90;;;;;;5101140;27;20766;-82
2023/06/09 05:10:02;;;;;;;20.38;7.72;;;13.60;99.90;;;;;;5087715;27;20212;-82
2023/06/09 05:12:29;;;;;;;19.85;7.55;;;13.70;99.90;;;;;;5119813;27;20432;-81
2023/06/09 05:14:55;;;;;;;19.20;8.43;;;13.80;99.90;;;;;;5106224;27;20042;-82
2023/06/09 05:17:21;;;;;;;23.88;9.13;;;13.80;99.90;;;;;;5097954;27;20673;-81
2023/06/09 05:19:46;;;;;;;17.23;8.13;;;13.80;99.90;;;;;;5126907;27;20043;-82
2023/06/09 05:22:12;;;;;;;20.23;8.30;;;14.00;99.90;;;;;;5121562;27;20385;-82
2023/06/09 05:24:38;;;;;;;20.80;8.30;;;14.10;99.90;;;;;;5119480;27;20035;-82
2023/06/09 05:27:05;;;;;;;19.30;8.63;;;14.00;99.90;;;;;;5079558;27;20057;-81
2023/06/09 05:29:30;;;;;;;20.80;8.38;;;14.10;99.90;;;;;;5100857;27;20043;-81
2023/06/09 05:31:56;;;;;;;18.17;8.52;;;14.20;99.90;;;;;;5125963;27;20043;-82
2023/06/09 05:34:22;;;;;;;17.63;8.93;;;14.30;99.90;;;;;;5104894;27;20038;-82
2023/06/09 05:36:47;;;;;;;15.45;8.13;;;14.30;99.90;;;;;;5093172;28;20046;-81
2023/06/09 05:39:14;;;;;;;17.45;9.10;;;14.40;99.90;;;;;;5091557;27;20465;-82
2023/06/09 05:41:40;;;;;;;16.88;8.52;;;14.50;99.90;;;;;;5116619;27;20047;-82
2023/06/09 05:44:06;;;;;;;18.67;9.13;;;14.50;99.90;;;;;;5122779;27;20043;-82
2023/06/09 05:46:35;;;;;;;20.45;9.15;;;14.50;99.90;;;;;;5121335;27;20041;-82
2023/06/09 05:49:01;;;;;;;23.42;9.75;;;14.50;99.90;;;;;;5122982;27;20099;-81
2023/06/09 05:51:27;;;;;;;16.45;8.85;;;14.60;99.90;;;;;;5104843;27;20493;-81
2023/06/09 05:53:55;;;;;;;19.30;9.05;;;14.70;99.90;;;;;;5094024;27;20155;-81
2023/06/09 05:56:25;;;;;;;16.60;8.75;;;14.90;99.90;;;;;;5083888;27;20050;-81
2023/06/09 05:58:51;;;;;;;15.57;9.15;;;14.90;99.90;;;;;;5121674;27;20454;-81
2023/06/09 06:01:17;;;;;;;15.38;8.57;;;14.80;99.90;;;;;;5100228;27;20039;-82
2023/06/09 06:03:44;;;;;;;18.23;8.90;;;15.10;99.90;;;;;;5127231;27;20055;-81
2023/06/09 06:06:10;;;;;;;18.05;9.93;;;15.10;99.90;;;;;;5080180;27;20039;-81
2023/06/09 06:08:38;;;;;;;20.70;9.07;;;15.30;99.90;;;;;;5122755;27;20448;-81
2023/06/09 06:11:07;;;;;;;15.07;8.65;;;15.40;99.90;;;;;;5115885;27;20058;-81
2023/06/09 06:13:33;;;;;;;21.70;9.70;;;15.40;99.90;;;;;;5126544;27;20310;-81
2023/06/09 06:15:59;;;;;;;17.35;9.30;;;15.40;99.90;;;;;;5095527;27;20039;-81
2023/06/09 06:18:25;;;;;;;18.92;8.88;;;15.50;99.90;;;;;;5099395;27;20039;-81
2023/06/09 06:20:51;;;;;;;24.35;9.23;;;15.60;99.90;;;;;;5121811;27;20043;-82
2023/06/09 06:23:17;;;;;;;17.63;8.98;;;15.40;99.90;;;;;;5106392;27;20034;-81
2023/06/09 06:25:42;;;;;;;18.65;9.10;;;15.50;99.90;;;;;;5095630;27;20031;-80
2023/06/09 06:28:11;;;;;;;21.95;9.07;;;15.40;99.90;;;;;;5096902;27;20126;-81
2023/06/09 06:30:40;;;;;;;19.70;9.32;;;15.60;99.90;;;;;;5086650;27;20474;-81
2023/06/09 06:33:07;;;;;;;20.70;9.25;;;15.90;99.90;;;;;;5128363;27;20591;-81
2023/06/09 06:35:33;;;;;;;22.40;9.07;;;16.00;99.90;;;;;;5109509;27;20038;-80
2023/06/09 06:38:03;;;;;;;20.90;9.05;;;16.10;99.90;;;;;;5085189;27;20099;-81
2023/06/09 06:40:29;;;;;;;21.33;8.57;;;16.10;99.90;;;;;;5096506;27;20043;-81
2023/06/09 06:42:55;;;;;;;19.80;10.10;;;16.40;99.90;;;;;;5120529;27;20051;-81
2023/06/09 06:45:22;;;;;;;15.43;8.70;;;16.40;99.90;;;;;;5115974;27;20531;-80
2023/06/09 06:47:49;;;;;;;16.05;9.23;;;16.60;99.90;;;;;;5092355;27;20387;-80
2023/06/09 06:50:15;;;;;;;17.35;8.77;;;16.80;99.90;;;;;;5105552;27;20106;-81
2023/06/09 06:52:41;;;;;;;14.95;8.20;;;16.80;99.90;;;;;;5095001;27;20439;-81
2023/06/09 06:55:08;;;;;;;16.02;8.68;;;16.90;99.90;;;;;;5130481;27;20078;-81
2023/06/09 06:57:37;;;;;;;15.10;8.15;;;16.90;99.90;;;;;;5116576;27;20039;-81
2023/06/09 07:00:15;;;;;;;17.52;7.90;;;17.00;99.90;;;;;;5097250;27;20050;-81
2023/06/09 07:02:43;;;;;;;19.17;8.30;;;16.90;99.90;;;;;;5130750;27;20130;-81
2023/06/09 07:05:08;;;;;;;15.45;8.65;;;17.20;99.90;;;;;;5094088;27;20292;-81
2023/06/09 07:07:34;;;;;;;15.45;7.15;;;17.30;99.90;;;;;;5118387;27;20035;-81
2023/06/09 07:10:01;;;;;;;15.40;7.50;;;17.30;99.90;;;;;;5130389;27;20347;-81
2023/06/09 07:12:27;;;;;;;12.10;7.40;;;17.50;99.90;;;;;;5096478;27;20653;-81
2023/06/09 07:14:53;;;;;;;15.82;7.78;;;17.50;99.90;;;;;;5095834;27;20129;-81
2023/06/09 07:17:18;;;;;;;15.95;8.02;;;17.50;99.90;;;;;;5086857;27;20039;-81
2023/06/09 07:19:44;;;;;;;16.25;6.80;;;17.60;99.90;;;;;;5090278;27;20567;-81
2023/06/09 07:22:10;;;;;;;19.77;7.25;;;17.70;99.90;;;;;;5101079;27;20399;-81
2023/06/09 07:24:35;;;;;;;13.43;6.57;;;17.60;99.90;;;;;;5110195;27;20035;-80
2023/06/09 07:27:01;;;;;;;12.40;6.30;;;17.90;99.90;;;;;;5111364;27;20034;-81
2023/06/09 07:29:27;;;;;;;18.90;6.78;;;17.90;99.90;;;;;;5102171;27;20039;-81
2023/06/09 07:31:53;;;;;;;14.07;7.03;;;18.00;99.90;;;;;;5121057;27;20038;-81
2023/06/09 07:34:18;;;;;;;15.90;6.68;;;18.30;99.90;;;;;;5127765;27;20070;-81
2023/06/09 07:36:50;;;;;;;12.00;6.60;;;18.40;99.90;;;;;;5086981;27;20539;-81
2023/06/09 07:39:16;;;;;;;14.13;6.28;;;18.20;99.90;;;;;;5084896;27;20119;-81
2023/06/09 07:41:42;;;;;;;16.35;7.35;;;18.50;99.90;;;;;;5125903;27;20043;-81
2023/06/09 07:44:08;;;;;;;13.35;6.55;;;18.60;99.90;;;;;;5130677;27;20062;-81
2023/06/09 07:46:34;;;;;;;12.68;6.18;;;18.70;99.90;;;;;;5090431;27;20035;-80
2023/06/09 07:48:59;;;;;;;15.70;6.40;;;18.80;99.90;;;;;;5110403;27;20035;-80
2023/06/09 07:51:26;;;;;;;13.73;5.95;;;19.10;99.90;;;;;;5088000;27;20122;-81
2023/06/09 07:53:52;;;;;;;9.75;5.30;;;19.20;99.90;;;;;;5105077;27;20050;-82
2023/06/09 07:56:18;;;;;;;15.75;6.05;;;19.30;99.90;;;;;;5095284;27;20365;-81
2023/06/09 07:58:44;;;;;;;13.23;6.05;;;19.30;99.90;;;;;;5088503;27;20042;-81
2023/06/09 08:01:09;;;;;;;10.90;5.88;;;19.40;99.90;;;;;;5089601;27;20039;-81
2023/06/09 08:03:35;;;;;;;16.00;6.10;;;19.50;99.90;;;;;;5128896;27;20030;-81
2023/06/09 08:06:05;;;;;;;10.75;6.00;;;19.70;99.90;;;;;;5093823;27;20039;-81
2023/06/09 08:08:31;;;;;;;11.15;6.20;;;19.70;99.90;;;;;;5109447;27;20467;-81
2023/06/09 08:11:00;;;;;;;11.38;5.78;;;20.00;99.90;;;;;;5109223;27;20035;-81
2023/06/09 08:13:27;;;;;;;14.45;5.88;;;20.10;99.90;;;;;;5079264;28;20039;-81
2023/06/09 08:15:53;;;;;;;10.65;5.20;;;20.00;99.90;;;;;;5138510;27;20100;-81
2023/06/09 08:18:22;;;;;;;13.68;5.85;;;20.30;99.90;;;;;;5146546;27;20035;-81
2023/06/09 08:20:48;;;;;;;12.98;5.60;;;20.30;99.90;;;;;;5100493;27;20488;-81
2023/06/09 08:23:13;;;;;;;12.43;5.53;;;20.40;99.90;;;;;;5089465;27;20039;-81
2023/06/09 08:25:39;;;;;;;9.50;4.95;;;20.50;99.90;;;;;;5106418;27;20047;-81
2023/06/09 08:28:05;;;;;;;13.23;5.53;;;20.60;99.90;;;;;;5116926;27;20038;-81
2023/06/09 08:30:31;;;;;;;10.00;5.40;;;20.90;99.90;;;;;;5126847;27;20455;-82
2023/06/09 08:32:59;;;;;;;10.55;5.45;;;20.70;99.90;;;;;;5126736;27;20035;-81
2023/06/09 08:35:25;;;;;;;11.18;5.65;;;20.80;99.90;;;;;;5086441;27;20166;-81
2023/06/09 08:37:51;;;;;;;8.80;4.97;;;20.70;99.90;;;;;;5087792;27;20173;-81
2023/06/09 08:40:19;;;;;;;14.57;5.10;;;21.10;99.90;;;;;;5094213;27;20139;-82
2023/06/09 08:42:48;;;;;;;12.68;5.78;;;21.20;99.90;;;;;;5091375;27;20151;-81
2023/06/09 08:45:18;;;;;;;10.40;5.00;;;21.20;99.90;;;;;;5093792;27;20111;-82
2023/06/09 08:47:47;;;;;;;14.32;5.95;;;21.60;99.90;;;;;;5096262;27;20035;-81
2023/06/09 08:50:14;;;;;;;9.32;4.53;;;21.50;99.90;;;;;;5117920;27;20036;-81
2023/06/09 08:52:43;;;;;;;14.52;5.63;;;21.80;99.90;;;;;;5088360;27;20035;-81
2023/06/09 08:55:08;;;;;;;10.45;5.22;;;21.80;99.90;;;;;;5095531;27;20459;-81
2023/06/09 08:57:34;;;;;;;13.55;5.47;;;21.90;99.90;;;;;;5096583;27;20146;-81
2023/06/09 09:00:03;;;;;;;11.95;4.93;;;22.10;99.90;;;;;;5140274;27;20046;-80
2023/06/09 09:02:29;;;;;;;12.25;5.00;;;22.10;99.90;;;;;;5104517;27;20042;-81
2023/06/09 09:04:54;;;;;;;9.77;5.13;;;22.30;99.90;;;;;;5087419;27;20116;-81
2023/06/09 09:07:21;;;;;;;9.85;4.88;;;22.40;99.90;;;;;;5083971;27;20536;-80
2023/06/09 09:09:46;;;;;;;10.27;5.30;;;22.50;99.90;;;;;;5106503;27;20048;-81
2023/06/09 09:12:13;;;;;;;11.57;4.93;;;22.90;99.90;;;;;;5118775;27;20043;-81
2023/06/09 09:14:43;;;;;;;10.45;4.90;;;23.00;99.90;;;;;;5110417;27;20031;-80
2023/06/09 09:17:13;;;;;;;8.80;4.82;;;23.00;99.90;;;;;;5125469;27;20218;-80
2023/06/09 09:19:45;;;;;;;9.70;4.68;;;22.90;99.90;;;;;;5077727;27;20043;-80
2023/06/09 09:22:11;;;;;;;12.38;5.25;;;23.20;99.90;;;;;;5080713;27;20070;-81
2023/06/09 09:24:44;;;;;;;10.75;4.53;;;23.00;99.90;;;;;;5091096;27;20043;-81
2023/06/09 09:27:22;;;;;;;10.52;4.65;;;23.30;99.90;;;;;;5109605;27;20038;-80
2023/06/09 09:29:48;;;;;;;11.50;5.03;;;23.50;99.90;;;;;;5129382;27;20475;-80
2023/06/09 09:32:17;;;;;;;12.65;4.75;;;23.50;99.90;;;;;;5090860;27;20047;-81
2023/06/09 09:34:47;;;;;;;10.07;5.13;;;23.50;99.90;;;;;;5090470;28;20043;-81
2023/06/09 09:37:16;;;;;;;11.80;5.05;;;23.80;99.90;;;;;;5107272;27;20041;-81
2023/06/09 09:39:52;;;;;;;8.63;5.35;;;23.60;99.90;;;;;;5086170;27;20513;-81
2023/06/09 09:42:19;;;;;;;10.18;4.82;;;23.90;66.20;;;;;;5076971;27;20055;-81
2023/06/09 09:44:47;;;;;;;8.65;4.45;;;24.10;99.90;;;;;;5093577;27;20035;-81
2023/06/09 09:47:18;;;;;;;10.23;4.88;;;24.20;15.00;;;;;;5104513;27;20038;-81
2023/06/09 09:49:54;;;;;;;8.35;5.38;;;24.60;99.90;;;;;;5086445;28;20466;-81
2023/06/09 09:52:25;;;;;;;9.57;5.28;;;24.60;99.90;;;;;;5095569;28;20201;-81
2023/06/09 09:54:53;;;;;;;8.48;4.63;;;24.60;1.00;;;;;;5124578;27;20042;-81
2023/06/09 09:57:20;;;;;;;10.52;5.30;;;24.70;1.00;;;;;;5119824;27;20054;-82
2023/06/09 09:59:47;;;;;;;11.73;4.82;;;24.90;1.00;;;;;;5107409;27;20126;-81
2023/06/09 10:02:24;;;;;;;8.80;4.90;;;25.00;12.40;;;;;;5087426;27;20039;-81
2023/06/09 10:04:50;;;;;;;10.60;4.88;;;24.90;76.10;;;;;;5091947;28;20047;-81
2023/06/09 10:07:21;;;;;;;11.20;5.03;;;25.30;1.00;;;;;;5093081;28;20489;-81
2023/06/09 10:09:54;;;;;;;9.30;5.13;;;25.10;99.90;;;;;;5107952;27;20035;-81
2023/06/09 10:12:20;;;;;;;8.20;4.65;;;25.30;99.90;;;;;;5092307;27;20026;-81
2023/06/09 10:14:51;;;;;;;9.00;4.32;;;25.00;99.90;;;;;;5124619;27;20053;-81
2023/06/09 10:17:22;;;;;;;11.43;5.05;;;25.40;99.90;;;;;;5108234;27;20030;-81
2023/06/09 10:19:51;;;;;;;11.73;4.68;;;25.60;99.90;;;;;;5088528;28;20079;-81
2023/06/09 10:22:19;;;;;;;8.23;4.35;;;25.80;98.50;;;;;;5113247;27;20035;-82
2023/06/09 10:24:46;;;;;;;8.82;4.72;;;26.10;99.90;;;;;;5088397;27;20916;-81
2023/06/09 10:27:13;;;;;;;10.85;5.00;;;25.90;1.00;;;;;;5113678;27;20074;-82
2023/06/09 10:29:40;;;;;;;12.30;4.70;;;26.20;1.00;;;;;;5090916;27;20108;-81
2023/06/09 10:32:07;;;;;;;10.75;4.65;;;26.10;99.90;;;;;;5093117;27;20039;-82
2023/06/09 10:34:37;;;;;;;11.10;4.80;;;26.30;99.90;;;;;;5100822;28;20039;-81
2023/06/09 10:37:04;;;;;;;9.80;4.82;;;26.60;99.90;;;;;;5088203;27;20484;-81
2023/06/09 10:39:48;;;;;;;8.20;4.53;;;26.60;99.90;;;;;;5111046;27;20138;-81
2023/06/09 10:42:31;;;;;;;10.38;4.32;;;26.90;99.90;;;;;;5082756;27;20050;-82
2023/06/09 10:45:02;;;;;;;8.43;4.53;;;27.10;99.90;;;;;;5089553;27;20465;-81
2023/06/09 10:47:48;;;;;;;7.05;4.45;;;27.00;97.00;;;;;;5115194;27;20442;-81
2023/06/09 10:50:26;;;;;;;8.90;5.07;;;26.90;1.00;;;;;;5090795;27;20529;-81
2023/06/09 10:52:59;;;;;;;8.93;4.78;;;26.80;1.00;;;;;;5096248;27;20074;-81
2023/06/09 10:55:27;;;;;;;8.48;3.80;;;27.20;99.90;;;;;;5088651;27;20075;-81
2023/06/09 10:57:54;;;;;;;8.15;4.13;;;27.40;1.00;;;;;;5092676;27;20062;-81
2023/06/09 11:00:20;;;;;;;9.75;4.40;;;27.60;1.00;;;;;;5081553;27;20044;-81
2023/06/09 11:02:48;;;;;;;5.50;3.60;;;27.90;99.90;;;;;;5103771;27;20407;-82
2023/06/09 11:05:15;;;;;;;7.53;4.25;;;27.90;99.90;;;;;;5111278;27;20123;-81
2023/06/09 11:07:52;;;;;;;6.95;4.25;;;27.60;99.90;;;;;;5113560;27;21011;-82
2023/06/09 11:10:17;;;;;;;7.70;4.30;;;28.00;99.90;;;;;;5086853;27;20050;-81
2023/06/09 11:12:45;;;;;;;10.32;3.90;;;27.80;99.90;;;;;;5097447;27;20043;-82
2023/06/09 11:15:11;;;;;;;7.38;4.50;;;27.50;99.90;;;;;;5098327;27;20100;-82
2023/06/09 11:17:41;;;;;;;6.47;4.30;;;28.00;99.90;;;;;;5090186;27;20042;-82
2023/06/09 11:20:10;;;;;;;7.20;4.18;;;27.80;99.90;;;;;;5128034;27;20554;-81
2023/06/09 11:22:42;;;;;;;7.75;4.70;;;28.20;99.90;;;;;;5106015;27;20103;-81
2023/06/09 11:25:28;;;;;;;6.00;4.38;;;28.00;82.00;;;;;;5109205;27;20061;-81
2023/06/09 11:27:57;;;;;;;6.90;4.30;;;27.90;81.70;;;;;;5082202;27;20455;-81
2023/06/09 11:30:24;;;;;;;9.48;4.47;;;28.30;68.00;;;;;;5091337;27;20039;-82
2023/06/09 11:33:03;;;;;;;6.13;4.22;;;28.60;61.70;;;;;;5112325;27;20096;-82
2023/06/09 11:35:28;;;;;;;7.00;4.25;;;28.20;1.00;;;;;;5089253;27;20180;-81
2023/06/09 11:38:01;;;;;;;6.22;4.53;;;28.50;1.00;;;;;;5102159;27;20603;-81
2023/06/09 11:40:29;;;;;;;6.53;4.45;;;28.40;1.00;;;;;;5111663;27;20476;-81
2023/06/09 11:42:56;;;;;;;8.93;4.60;;;28.60;1.00;;;;;;5146020;27;20046;-82
2023/06/09 11:45:30;;;;;;;12.95;4.22;;;28.80;1.00;;;;;;5104693;27;20535;-81
2023/06/09 11:47:57;;;;;;;6.77;4.20;;;29.10;1.00;;;;;;5089067;27;20115;-81
2023/06/09 11:50:44;;;;;;;7.68;4.25;;;29.20;1.00;;;;;;5105528;27;20035;-81
2023/06/09 11:53:15;;;;;;;8.15;4.53;;;29.00;1.00;;;;;;5110679;27;20454;-81
2023/06/09 11:55:42;;;;;;;5.90;4.50;;;29.50;1.00;;;;;;5094378;27;20039;-82
2023/06/09 11:58:09;;;;;;;5.28;4.28;;;29.00;99.90;;;;;;5112072;27;20049;-82
2023/06/09 12:00:45;;;;;;;5.80;4.10;;;28.90;99.90;;;;;;5111679;27;20751;-81
2023/06/09 12:03:12;;;;;;;8.68;3.70;;;29.40;99.90;;;;;;5100884;27;20047;-81
2023/06/09 12:05:37;;;;;;;6.85;3.92;;;29.80;99.90;;;;;;5122144;27;20192;-82
2023/06/09 12:08:03;;;;;;;5.78;3.70;;;29.50;99.90;;;;;;5135298;27;20245;-81
2023/06/09 12:10:30;;;;;;;6.03;3.85;;;29.80;99.90;;;;;;5096166;27;20108;-81
2023/06/09 12:13:00;;;;;;;7.85;4.00;;;29.40;99.90;;;;;;5113185;27;20043;-81
2023/06/09 12:15:27;;;;;;;5.18;3.88;;;29.90;99.90;;;;;;5114269;27;20123;-81
2023/06/09 12:17:56;;;;;;;5.05;3.70;;;30.00;99.90;;;;;;5085828;27;20050;-81
2023/06/09 12:20:25;;;;;;;6.75;3.70;;;30.40;99.90;;;;;;5088444;27;20119;-81
2023/06/09 12:22:53;;;;;;;4.75;3.67;;;30.40;99.90;;;;;;5089679;27;20035;-81
2023/06/09 12:25:25;;;;;;;8.93;4.03;;;30.20;99.90;;;;;;5113139;27;20134;-81
2023/06/09 12:27:52;;;;;;;6.35;3.83;;;30.30;99.90;;;;;;5094957;27;20039;-81
2023/06/09 12:30:35;;;;;;;7.60;4.25;;;30.20;99.90;;;;;;5102094;27;20077;-82
2023/06/09 12:33:09;;;;;;;4.53;3.30;;;30.40;99.90;;;;;;5098717;27;20074;-82
2023/06/09 12:35:55;;;;;;;4.47;3.30;;;30.60;99.90;;;;;;5091412;27;20387;-82
2023/06/09 12:38:23;;;;;;;4.88;3.00;;;30.20;99.90;;;;;;5097007;27;20061;-82
2023/06/09 12:41:00;;;;;;;4.57;3.58;;;30.50;99.90;;;;;;5126987;27;20046;-81
2023/06/09 12:43:26;;;;;;;4.78;3.42;;;29.90;99.90;;;;;;5113723;27;20378;-81
2023/06/09 12:45:56;;;;;;;5.03;3.03;;;30.50;99.90;;;;;;5091804;27;20039;-81
2023/06/09 12:48:24;;;;;;;6.78;3.25;;;29.90;99.90;;;;;;5092413;27;20096;-81